Архив погоды в Вышнем Волочке

Метеограмма Вышний Волочек
Четверг, 24 Мая
Время местн. Темп Ветер Видим Явления Облачность нижн/средн/верх Атм. давл. Влжн Точка росы ВНГО R Сост. почвы Tg s
Напр Скр Прв ур.ст ур.м изм
21:00 +16.5° С,С-В 2 - 20 км - облачно с прояснениями 754 769 +1.2 72% +11.5° 1 км 0 - - -
18:00 +19.1° С,С-В 3 - 20 км - облачно с прояснениями 753 767 +0.1 56% +10° 1 км - - - -
15:00 +22.1° С 3 - 20 км - переменная облачность 752 767 -0.4 42% +8.5° 1 км - - - -
12:00 +20.3° С 2 - 20 км - переменная облачность 753 768 -0.2 50% +9.6° 1 км - - - -
09:00 +17.2° З,С-З 1 - 20 км - переменная облачность 753 768 +0.3 64% +10.3° 1 км 0 Сухая (без трещин) +8° -
06:00 +9.3° штиль 0 - 20 км - переменная облачность 753 768 +0.2 97% +8.8° 1 км - - - -
03:00 +8.7° штиль 0 - 10 км - преимущественно облачно 753 768 -0.1 96% +8.1° более 2.5 км - - - -
00:00 +10° штиль 0 - 10 км - преимущественно облачно 753 768 +0.5 94% +9.1° более 2.5 км - - - -
Среда, 23 Мая
Время местн. Темп Ветер Видим Явления Облачность нижн/средн/верх Атм. давл. Влжн Точка росы ВНГО R Сост. почвы Tg s
Напр Скр Прв ур.ст ур.м изм
21:00 +16.2° С 1 - 10 км - преимущественно облачно 752 767 +0.5 60% +8.5° 1 км 0 - - -
18:00 +19.3° З 1 - 20 км - переменная облачность 752 767 -0.5 50% +8.7° 1 км - - - -
15:00 +19.2° З 3 - 20 км - облачно с прояснениями 752 767 0 52% +9.2° 1 км - - - -
12:00 +16.8° З 3 - 20 км - преимущественно облачно 752 767 +0.2 60% +9° 1 км - - - -
09:00 +15.2° З,Ю-З 2 - 20 км - облачно с прояснениями 752 767 -0.1 74% +10.7° 1 км 0 Влажная (без луж) +10° -
06:00 +12.1° Ю 1 - 20 км - преимущественно облачно 752 767 -0.1 90% +10.5° 1 км - - - -
03:00 +11.5° Ю 1 - 10 км - преимущественно облачно 752 768 -0.3 91% +10.1° 1 км - - - -
00:00 +11.3° штиль 0 - 10 км - переменная облачность 752 768 -0.2 87% +9.2° 1 км - - - -
Вторник, 22 Мая
Время местн. Темп Ветер Видим Явления Облачность нижн/средн/верх Атм. давл. Влжн Точка росы ВНГО R Сост. почвы Tg s
Напр Скр Прв ур.ст ур.м изм
21:00 +13.7° Ю-В 1 - 10 км - преимущественно облачно 753 768 -0.8 69% +8.2° 1 км 0 - - -
18:00 +15.9° Ю-В 2 - 20 км - преимущественно облачно 753 769 -1.5 54% +6.7° 1 км - - - -
15:00 +16.1° Ю,Ю-В 4 - 20 км ливневый дождь преимущественно облачно 755 770 -0.5 47% +4.9° 1 км - - - -
12:00 +20.8° В,Ю-В 2 - 20 км - переменная облачность 755 770 -1.1 32% +3.4° более 2.5 км - - - -
09:00 +18.9° В 1 - 20 км - переменная облачность 756 772 -0.5 38% +4.1° более 2.5 км 0 Влажная (без луж) +5° -
06:00 +6.7° штиль 0 - 20 км - ясно 757 773 +0.4 97% +6.3° более 2.5 км - - - -
03:00 +6.1° штиль 0 - 10 км - ясно 757 772 +0.1 97% +5.6° более 2.5 км - - - -
00:00 +8.2° штиль 0 - 10 км - ясно 757 772 +0.5 93% +7.2° более 2.5 км - - - -
Понедельник, 21 Мая
Время местн. Темп Ветер Видим Явления Облачность нижн/средн/верх Атм. давл. Влжн Точка росы ВНГО R Сост. почвы Tg s
Напр Скр Прв ур.ст ур.м изм
21:00 +14.6° штиль 0 - 10 км - ясно 756 771 +0.1 66% +8.4° более 2.5 км 0 - - -
18:00 +21.6° В 1 - 20 км - ясно 756 771 -0.6 27% +1.6° более 2.5 км - - - -